Augusta, Kansas
Current Conditions -  °F | °C
As of 4:15 AM on Friday 31 Oct 2014 (Local Time) from KEQA Reporting Station
Overcast Overcast  
Wind Chill: 37°   Ceiling: 1900
Heat Index: 45°   Visibility: 10mi
Dew Point: 39°   Wind: 16mph
Humidity: 81%   Direction: 350°N
Pressure: 30.33"   Gusts: NA
Location:  37.68°N, 96.98°W
Report Text: KEQA 310915Z AUTO 35014KT 10SM OVC019 07/04 A3033 RMK AO2
Loading
Personal Weather Stations






























Interactive Weather Map New forecast layout! Learn more

10-Day Weather Forecast

Advertisements
Track Severe Weather on mobile